Time;durP1;ratioP1;P1;durP2;ratioP2;P2;SDS_P1;SDS_P2;PMS_P1;PMS_P2;Temp;Humidity;BMP_temperature;BMP_pressure;BME280_temperature;BME280_humidity;BME280_pressure;Samples;Min_cycle;Max_cycle;Signal;HPM_P1;HPM_P2
2022/01/03 10:02:04;;;;;;;144.10;122.43;;;;;;;18.57;39.83;93877.84;5085731;27;20116;-66
2022/01/03 10:04:30;;;;;;;190.98;142.18;;;;;;;18.28;41.63;93876.47;5076938;28;20044;-66
2022/01/03 10:06:56;;;;;;;168.10;140.85;;;;;;;18.18;40.90;93885.09;5074614;28;20411;-66
2022/01/03 10:09:23;;;;;;;185.60;147.07;;;;;;;18.13;41.64;93877.59;5077029;28;20043;-68
2022/01/03 10:11:50;;;;;;;167.18;148.73;;;;;;;18.15;41.23;93884.06;5075336;28;20531;-64
2022/01/03 10:14:16;;;;;;;169.95;151.20;;;;;;;18.15;40.35;93873.25;5074394;28;20047;-66
2022/01/03 10:16:44;;;;;;;157.10;139.82;;;;;;;18.28;41.53;93873.00;5077291;28;21256;-66
2022/01/03 10:19:10;;;;;;;172.87;153.87;;;;;;;18.32;41.97;93871.63;5074748;28;20052;-66
2022/01/03 10:21:37;;;;;;;180.02;160.73;;;;;;;18.36;40.63;93866.81;5078854;28;20063;-64
2022/01/03 10:24:03;;;;;;;179.95;160.23;;;;;;;18.36;39.94;93869.50;5077235;28;20487;-64
2022/01/03 10:26:29;;;;;;;200.10;166.38;;;;;;;18.39;40.83;93851.59;5076731;28;20049;-65
2022/01/03 10:29:16;;;;;;;180.63;160.77;;;;;;;18.42;40.51;93862.25;5077308;28;20051;-65
2022/01/03 10:31:43;;;;;;;189.18;159.82;;;;;;;18.40;40.30;93837.59;5075852;28;20044;-65
2022/01/03 10:34:12;;;;;;;162.77;145.13;;;;;;;17.15;36.96;93841.75;5079929;28;20045;-67
2022/01/03 10:36:38;;;;;;;171.75;153.30;;;;;;;16.11;38.78;93849.88;5074884;28;20055;-63
2022/01/03 10:39:21;;;;;;;174.18;155.32;;;;;;;17.21;40.54;93837.25;5076586;28;20118;-63
2022/01/03 10:41:52;;;;;;;173.38;154.55;;;;;;;17.33;38.52;93841.00;5076145;28;20457;-62
2022/01/03 10:44:37;;;;;;;167.00;148.32;;;;;;;16.47;38.48;93835.72;5077557;28;20101;-65
2022/01/03 10:47:04;;;;;;;161.00;143.25;;;;;;;16.78;38.51;93832.94;5076081;28;20044;-65
2022/01/03 10:49:32;;;;;;;158.73;141.83;;;;;;;17.07;37.83;93835.16;5077829;28;20068;-67
2022/01/03 10:52:17;;;;;;;164.15;146.25;;;;;;;17.20;37.58;93832.31;5076767;28;20365;-71
2022/01/03 10:54:45;;;;;;;156.63;139.43;;;;;;;17.22;37.63;93825.25;5078558;28;20166;-66
2022/01/03 10:57:11;;;;;;;170.33;151.67;;;;;;;17.26;37.49;93820.44;5076345;28;20040;-68
2022/01/03 10:59:38;;;;;;;164.77;147.05;;;;;;;17.26;37.53;93825.84;5076303;28;20793;-65
2022/01/03 11:02:06;;;;;;;160.70;143.43;;;;;;;17.26;37.65;93815.03;5072940;28;20366;-67
2022/01/03 11:10:43;;;;;;;161.48;144.07;;;;;;;17.27;37.74;93811.13;5076854;28;20081;-69
2022/01/03 11:13:16;;;;;;;153.73;137.23;;;;;;;17.25;37.74;93796.56;5063665;28;20051;-67
2022/01/03 11:15:48;;;;;;;163.98;146.43;;;;;;;17.24;37.74;93808.56;5063404;28;20115;-67
2022/01/03 11:18:21;;;;;;;162.45;145.10;;;;;;;17.22;37.69;93802.88;5063032;28;20142;-67
2022/01/03 11:21:09;;;;;;;160.48;143.30;;;;;;;17.21;37.52;93783.22;5062464;28;20043;-67
2022/01/03 11:23:35;;;;;;;159.77;142.50;;;;;;;17.24;37.57;93781.56;5061997;28;20242;-68
2022/01/03 11:26:19;;;;;;;159.20;142.13;;;;;;;17.23;37.37;93783.50;5061999;28;20075;-66
2022/01/03 11:28:46;;;;;;;161.70;144.32;;;;;;;17.22;37.48;93765.78;5064804;28;20135;-68
2022/01/03 11:31:14;;;;;;;155.13;138.65;;;;;;;17.23;37.56;93775.41;5061552;28;20052;-67
2022/01/03 11:33:40;;;;;;;160.60;143.38;;;;;;;17.22;37.69;93771.19;5065369;28;20052;-69
2022/01/03 11:36:06;;;;;;;159.20;142.13;;;;;;;17.18;37.71;93767.91;5063744;28;20078;-69
2022/01/03 11:38:36;;;;;;;164.02;146.43;;;;;;;17.18;37.74;93777.97;5069348;28;20044;-68
2022/01/03 11:41:08;;;;;;;164.82;147.20;;;;;;;17.19;37.46;93758.59;5058332;28;20040;-68
2022/01/03 11:43:36;;;;;;;149.98;134.20;;;;;;;17.23;37.62;93763.84;5070601;28;20135;-68
2022/01/03 11:46:02;;;;;;;153.77;137.40;;;;;;;17.19;37.64;93765.94;5084153;28;20083;-66
2022/01/03 11:48:30;;;;;;;157.63;140.77;;;;;;;17.17;37.57;93757.53;5082000;28;20036;-66
2022/01/03 11:51:09;;;;;;;149.73;133.85;;;;;;;17.18;37.50;93750.94;5082606;28;20119;-66
2022/01/03 11:53:41;;;;;;;152.10;135.88;;;;;;;17.20;37.53;93770.91;5088209;28;20067;-66
2022/01/03 11:56:09;;;;;;;152.48;136.10;;;;;;;17.19;37.37;93742.38;5083130;28;20488;-67
2022/01/03 12:04:13;;;;;;;148.85;133.07;;;;;;;17.20;37.32;93751.22;5081286;28;20056;-66
2022/01/03 12:06:39;;;;;;;149.35;133.50;;;;;;;17.19;37.30;93749.72;5087631;28;20057;-66
2022/01/03 12:09:13;;;;;;;148.07;132.32;;;;;;;17.20;37.30;93745.81;5090904;28;20131;-67
2022/01/03 12:11:52;;;;;;;150.20;134.30;;;;;;;17.20;37.27;93745.81;5089598;28;20416;-66
2022/01/03 12:14:20;;;;;;;146.98;131.48;;;;;;;17.17;37.29;93739.38;5085778;28;20175;-66
2022/01/03 12:16:47;;;;;;;148.32;132.75;;;;;;;17.20;37.42;93751.97;5085843;28;20044;-67
2022/01/03 12:19:28;;;;;;;148.55;132.88;;;;;;;17.20;37.31;93746.56;5090763;28;20090;-66
2022/01/03 12:21:58;;;;;;;148.52;132.80;;;;;;;17.17;37.63;93747.50;5087831;28;20081;-67
2022/01/03 12:24:26;;;;;;;147.60;131.93;;;;;;;17.17;37.25;93739.38;5089801;28;20133;-66
2022/01/03 12:27:10;;;;;;;146.30;130.88;;;;;;;17.16;37.15;93734.44;5090301;28;20134;-67
2022/01/03 12:29:53;;;;;;;148.23;132.32;;;;;;;17.13;37.22;93736.09;5081732;28;20055;-67
2022/01/03 12:32:20;;;;;;;147.10;131.40;;;;;;;17.15;37.23;93747.19;5084699;28;20138;-66
2022/01/03 12:35:07;;;;;;;147.27;131.60;;;;;;;17.17;37.24;93738.63;5083835;28;20094;-66
2022/01/03 12:37:35;;;;;;;146.93;131.25;;;;;;;17.18;37.22;93745.53;5090468;28;20078;-67
2022/01/03 12:40:04;;;;;;;147.57;131.93;;;;;;;17.16;37.21;93746.00;5084833;28;20052;-65
2022/01/03 12:42:53;;;;;;;148.20;132.48;;;;;;;17.13;37.22;93738.78;5084805;28;20047;-66
2022/01/03 12:45:34;;;;;;;149.30;133.50;;;;;;;17.13;37.14;93726.03;5088576;28;20052;-66
2022/01/03 12:48:12;;;;;;;147.85;132.23;;;;;;;17.15;37.14;93736.38;5074209;28;20071;-67
2022/01/03 12:50:53;;;;;;;147.57;131.85;;;;;;;17.16;37.15;93723.63;5084348;28;20056;-66
2022/01/03 12:53:28;;;;;;;148.40;132.70;;;;;;;17.13;37.03;93720.63;5082506;28;20039;-66
2022/01/03 12:56:08;;;;;;;147.90;132.23;;;;;;;17.16;37.40;93734.44;5089933;28;20113;-66
2022/01/03 12:58:33;;;;;;;149.05;133.25;;;;;;;17.15;37.28;93741.78;5089961;28;20048;-66
2022/01/03 13:01:05;;;;;;;150.93;134.82;;;;;;;17.12;37.32;93732.63;5080274;28;20043;-66
2022/01/03 13:03:37;;;;;;;147.40;131.68;;;;;;;17.13;37.32;93736.09;5077104;28;20052;-66
2022/01/03 13:06:05;;;;;;;163.25;145.65;;;;;;;17.13;37.23;93738.78;5061692;28;20083;-65
2022/01/03 13:08:34;;;;;;;152.68;136.32;;;;;;;17.15;37.28;93741.03;5061225;28;20054;-65
2022/01/03 13:11:08;;;;;;;164.68;146.98;;;;;;;17.13;37.04;93726.03;5060506;28;20074;-66
2022/01/03 13:13:40;;;;;;;166.93;148.95;;;;;;;17.11;37.33;93722.28;5061403;28;20058;-66
2022/01/03 13:16:22;;;;;;;165.25;147.35;;;;;;;17.12;36.94;93718.38;5060303;28;20040;-67
2022/01/03 13:18:56;;;;;;;150.68;134.52;;;;;;;17.12;36.80;93713.72;5060868;28;20063;-66
2022/01/03 13:21:24;;;;;;;168.25;150.00;;;;;;;17.12;36.97;93716.41;5059717;28;20135;-65
2022/01/03 13:23:55;;;;;;;162.05;144.40;;;;;;;17.12;36.75;93715.66;5061316;28;20052;-66
2022/01/03 13:26:22;;;;;;;166.55;148.43;;;;;;;17.14;36.93;93721.38;5061181;28;20490;-67
2022/01/03 13:28:50;;;;;;;167.07;149.00;;;;;;;17.13;36.61;93711.78;5062796;28;20087;-66
2022/01/03 13:31:16;;;;;;;167.67;149.37;;;;;;;17.13;36.99;93717.91;5061588;28;20064;-66
2022/01/03 13:33:41;;;;;;;152.25;136.00;;;;;;;17.13;36.68;93712.53;5059987;28;22047;-66
2022/01/03 13:36:07;;;;;;;161.50;144.07;;;;;;;17.12;36.85;93715.66;5057315;28;20040;-66
2022/01/03 13:38:34;;;;;;;166.55;148.43;;;;;;;17.10;36.65;93709.97;5061593;28;20520;-67
2022/01/03 13:41:13;;;;;;;166.70;148.73;;;;;;;17.13;36.80;93709.06;5060886;28;20124;-65
2022/01/03 13:43:43;;;;;;;172.38;153.60;;;;;;;17.12;37.07;93715.66;5060150;28;20485;-65
2022/01/03 13:51:20;;;;;;;167.43;149.13;;;;;;;17.14;36.70;93724.06;5061023;28;20044;-65
2022/01/03 13:53:51;;;;;;;164.50;146.65;;;;;;;17.12;36.54;93707.56;5061466;28;20049;-66
2022/01/03 13:56:16;;;;;;;168.32;150.18;;;;;;;17.15;36.84;93703.22;5060225;28;20143;-66
2022/01/03 13:58:44;;;;;;;165.93;148.00;;;;;;;17.14;36.68;93705.16;5060357;28;20061;-65
2022/01/03 14:01:09;;;;;;;157.70;140.77;;;;;;;17.10;36.29;93704.56;5058989;28;20853;-66
2022/01/03 14:03:36;;;;;;;165.68;147.70;;;;;;;17.13;36.45;93698.25;5058918;28;20424;-66
2022/01/03 14:06:16;;;;;;;168.13;149.90;;;;;;;17.12;36.76;93700.22;5058159;28;20127;-66
2022/01/03 14:08:42;;;;;;;167.02;148.85;;;;;;;17.11;36.46;93708.78;5058343;28;20056;-67
2022/01/03 14:11:15;;;;;;;169.45;151.10;;;;;;;17.12;36.57;93707.56;4950912;28;56709;-67
2022/01/03 14:13:42;;;;;;;170.30;151.77;;;;;;;17.12;36.55;93702.91;5001915;28;20054;-66
2022/01/03 14:16:09;;;;;;;171.80;153.02;;;;;;;17.12;36.76;93705.63;5000603;28;20048;-66
2022/01/03 14:18:45;;;;;;;166.80;148.63;;;;;;;17.13;36.54;93715.22;5003279;28;20072;-66
2022/01/03 14:21:25;;;;;;;166.80;148.63;;;;;;;17.13;36.66;93707.13;5002638;28;20049;-66
2022/01/03 14:23:53;;;;;;;167.48;149.27;;;;;;;17.11;36.63;93697.97;5002101;28;20042;-66
2022/01/03 14:26:22;;;;;;;;;;;;;;;17.12;36.65;93711.03;5000317;28;20042;-66
2022/01/03 14:28:49;;;;;;;166.82;146.88;;;;;;;17.13;36.82;93695.56;5002438;28;20031;-66
2022/01/03 14:31:15;;;;;;;170.48;151.75;;;;;;;17.12;36.91;93680.53;5001780;28;20041;-66
2022/01/03 14:33:41;;;;;;;167.00;148.57;;;;;;;17.12;37.04;93675.91;5002483;28;20053;-66
2022/01/03 14:36:17;;;;;;;159.70;142.20;;;;;;;17.10;36.95;93672.91;5002017;28;20057;-66
2022/01/03 14:38:46;;;;;;;169.02;150.63;;;;;;;17.12;36.96;93658.94;5002911;28;20163;-65
2022/01/03 14:41:25;;;;;;;171.35;152.68;;;;;;;17.09;36.95;93646.34;5003257;28;20183;-67
2022/01/03 14:43:59;;;;;;;170.40;151.70;;;;;;;17.12;36.96;93648.13;5004030;28;20075;-65
2022/01/03 14:46:44;;;;;;;170.25;151.57;;;;;;;17.11;37.04;93638.53;5000977;28;20418;-65
2022/01/03 14:49:20;;;;;;;175.10;156.07;;;;;;;17.12;37.20;93642.72;5006858;28;20141;-66
2022/01/03 14:51:48;;;;;;;169.10;150.70;;;;;;;17.12;37.08;93631.91;5006750;28;20046;-65
2022/01/03 14:54:20;;;;;;;172.65;153.88;;;;;;;17.11;37.21;93627.72;5007317;28;20045;-67
2022/01/03 14:56:48;;;;;;;172.10;153.35;;;;;;;17.11;37.22;93622.31;5006480;28;20046;-67
2022/01/03 14:59:13;;;;;;;176.65;157.10;;;;;;;17.11;37.11;93619.59;5007821;28;20068;-66
2022/01/03 15:01:41;;;;;;;172.25;153.30;;;;;;;17.10;36.94;93613.47;5005660;28;20081;-65
2022/01/03 15:04:06;;;;;;;172.85;153.93;;;;;;;17.11;37.05;93611.50;5007703;28;20132;-65
2022/01/03 15:06:32;;;;;;;176.23;157.05;;;;;;;17.10;36.98;93594.53;5004929;28;20443;-66
2022/01/03 15:08:57;;;;;;;182.00;161.98;;;;;;;17.11;37.05;93606.09;5003493;28;20060;-66
2022/01/03 15:11:23;;;;;;;178.10;158.50;;;;;;;17.12;36.67;93599.50;5005726;28;20526;-66
2022/01/03 15:13:51;;;;;;;172.73;153.65;;;;;;;17.11;37.18;93589.88;5004822;28;20045;-65
2022/01/03 15:16:18;;;;;;;172.77;153.77;;;;;;;17.11;37.00;93592.59;5007427;28;20045;-65
2022/01/03 15:18:43;;;;;;;175.52;156.27;;;;;;;17.14;37.06;93594.38;5003555;28;20120;-66
2022/01/03 15:21:09;;;;;;;163.80;146.02;;;;;;;17.13;37.02;93596.34;5005067;28;20292;-66
2022/01/03 15:23:35;;;;;;;172.65;153.80;;;;;;;17.13;36.97;93596.34;5005343;28;20497;-67
2022/01/03 15:26:02;;;;;;;172.15;153.38;;;;;;;17.13;36.97;93595.59;5005810;28;20054;-67
2022/01/03 15:28:28;;;;;;;175.52;156.38;;;;;;;17.13;36.97;93593.63;5007565;28;20195;-65
2022/01/03 15:30:56;;;;;;;167.18;149.02;;;;;;;17.13;37.08;93595.59;5005953;28;20179;-67
2022/01/03 15:33:22;;;;;;;168.23;149.75;;;;;;;17.13;36.81;93601.00;5002939;28;20053;-67
2022/01/03 15:35:47;;;;;;;159.55;142.25;;;;;;;17.12;37.02;93594.84;5002003;28;20278;-66
2022/01/03 15:38:14;;;;;;;171.75;153.02;;;;;;;17.13;37.06;93584.78;5005675;28;20453;-66
2022/01/03 15:40:41;;;;;;;171.18;152.45;;;;;;;17.12;36.89;93585.97;5003261;28;20045;-67
2022/01/03 15:43:08;;;;;;;169.20;150.80;;;;;;;17.13;36.96;93592.88;5007562;28;20062;-64
2022/01/03 15:45:36;;;;;;;170.93;152.35;;;;;;;17.13;36.94;93593.63;5005298;28;20048;-64
2022/01/03 15:48:03;;;;;;;162.50;144.98;;;;;;;17.13;36.96;93585.53;5004354;28;21408;-64
2022/01/03 15:50:29;;;;;;;152.27;136.05;;;;;;;17.15;37.02;93584.31;5005259;28;20311;-64
2022/01/03 15:52:55;;;;;;;166.02;148.07;;;;;;;17.14;36.97;93583.56;5007303;28;20047;-63
2022/01/03 15:55:20;;;;;;;154.60;138.15;;;;;;;17.13;36.75;93579.38;5006491;28;20049;-63
2022/01/03 15:57:46;;;;;;;165.10;147.35;;;;;;;17.13;36.91;93577.41;5004863;28;20045;-64
2022/01/03 16:00:13;;;;;;;169.18;150.85;;;;;;;17.13;36.94;93569.31;5004465;28;20122;-64
2022/01/03 16:02:39;;;;;;;166.88;148.88;;;;;;;17.13;37.09;93561.22;5000617;28;20450;-64
2022/01/03 16:05:05;;;;;;;166.30;148.30;;;;;;;17.13;36.88;93563.91;5004835;28;20116;-65
2022/01/03 16:07:31;;;;;;;172.02;153.25;;;;;;;17.12;36.90;93548.91;5005525;28;20065;-64
2022/01/03 16:09:56;;;;;;;165.75;147.68;;;;;;;17.14;37.01;93551.16;5005193;28;20057;-64
2022/01/03 16:12:23;;;;;;;159.05;141.63;;;;;;;17.13;36.88;93555.81;5004884;28;21433;-64
2022/01/03 16:14:50;;;;;;;174.43;155.48;;;;;;;17.14;36.55;93548.44;5005935;28;20560;-64
2022/01/03 16:17:16;;;;;;;168.25;149.90;;;;;;;17.15;36.87;93549.19;5008318;28;20052;-64
2022/01/03 16:19:42;;;;;;;171.73;153.02;;;;;;;17.14;37.13;93553.84;5006054;28;20042;-64
2022/01/03 16:22:08;;;;;;;173.73;154.77;;;;;;;17.14;37.08;93545.75;5003988;28;20047;-64
2022/01/03 16:24:33;;;;;;;174.52;155.65;;;;;;;17.13;37.00;93547.69;5004549;28;20060;-64
2022/01/03 16:26:59;;;;;;;173.98;155.15;;;;;;;17.13;36.80;93555.81;5003478;28;20066;-64
2022/01/03 16:29:25;;;;;;;175.52;156.48;;;;;;;17.13;36.91;93557.75;5005351;28;20042;-63
2022/01/03 16:31:51;;;;;;;174.85;156.02;;;;;;;17.14;37.01;93553.84;5005166;28;20079;-64
2022/01/03 16:34:18;;;;;;;177.38;158.18;;;;;;;17.13;37.02;93555.06;5002631;28;20640;-64
2022/01/03 16:36:44;;;;;;;176.35;157.23;;;;;;;17.13;37.04;93549.66;5004005;28;20099;-64
2022/01/03 16:39:10;;;;;;;162.55;144.85;;;;;;;17.14;36.95;93561.97;5002933;28;20060;-64
2022/01/03 16:41:37;;;;;;;176.68;157.45;;;;;;;17.13;37.02;93553.09;5003275;28;20096;-64
2022/01/03 16:44:04;;;;;;;175.30;156.25;;;;;;;17.13;36.95;93545.00;5004026;28;20042;-66
2022/01/03 16:46:29;;;;;;;169.13;150.98;;;;;;;17.14;37.02;93540.34;5002462;28;20045;-66
2022/01/03 16:48:55;;;;;;;177.02;157.93;;;;;;;17.13;37.09;93525.34;5003577;28;20069;-66
2022/01/03 16:51:21;;;;;;;166.82;148.77;;;;;;;17.13;37.13;93528.78;5003946;28;20069;-68
2022/01/03 16:53:47;;;;;;;168.23;150.20;;;;;;;17.14;37.29;93529.53;5003087;28;20522;-65
2022/01/03 16:56:13;;;;;;;174.23;155.45;;;;;;;17.14;37.10;93521.44;5002954;28;20552;-65
2022/01/03 16:58:39;;;;;;;168.70;150.60;;;;;;;17.13;36.95;93512.56;5005091;28;20050;-65
2022/01/03 17:01:05;;;;;;;169.43;151.20;;;;;;;17.13;36.96;93522.63;5002474;28;20041;-65
2022/01/03 17:03:30;;;;;;;168.65;150.45;;;;;;;17.14;37.02;93502.50;5002603;28;20064;-65
2022/01/03 17:05:56;;;;;;;176.65;157.55;;;;;;;17.13;37.01;93499.06;4997212;28;20686;-64
2022/01/03 17:08:21;;;;;;;175.70;156.93;;;;;;;17.13;37.04;93493.66;4990067;28;20045;-66
2022/01/03 17:10:48;;;;;;;168.73;150.65;;;;;;;17.12;37.09;93486.75;4999321;28;20113;-67
2022/01/03 17:13:16;;;;;;;164.70;147.07;;;;;;;17.13;36.87;93479.41;5003000;28;20080;-66
2022/01/03 17:15:41;;;;;;;173.70;155.20;;;;;;;17.13;36.98;93482.09;5002112;28;20522;-65
2022/01/03 17:18:08;;;;;;;178.10;159.00;;;;;;;17.13;37.21;93472.03;5004698;28;20126;-66
2022/01/03 17:20:35;;;;;;;170.30;152.10;;;;;;;17.13;37.00;93465.91;5003053;28;20111;-66
2022/01/03 17:23:02;;;;;;;169.20;151.15;;;;;;;17.14;37.03;93456.59;5003630;28;20144;-66
2022/01/03 17:25:28;;;;;;;174.93;156.25;;;;;;;17.14;37.12;93464.69;5002319;28;20451;-64
2022/01/03 17:27:53;;;;;;;168.10;150.18;;;;;;;17.12;37.14;93464.41;5001301;28;20057;-66
2022/01/03 17:30:20;;;;;;;171.13;152.88;;;;;;;17.13;37.19;93460.50;5003183;28;20057;-65
2022/01/03 17:32:46;;;;;;;157.73;140.95;;;;;;;17.10;37.21;93459.47;5002348;28;20053;-65
2022/01/03 17:35:11;;;;;;;170.32;152.07;;;;;;;17.13;37.14;93465.91;5004223;28;20061;-66
2022/01/03 17:37:37;;;;;;;169.05;150.85;;;;;;;17.14;37.28;93461.97;5003004;28;20049;-65
2022/01/03 17:40:05;;;;;;;167.77;149.90;;;;;;;17.14;37.17;93464.69;5002309;28;20137;-66
2022/01/03 17:42:31;;;;;;;170.02;151.75;;;;;;;17.13;37.02;93455.84;5000489;28;20537;-66
2022/01/03 17:44:57;;;;;;;169.07;150.98;;;;;;;17.15;37.01;93454.63;5003175;28;20050;-66
2022/01/03 17:47:23;;;;;;;173.45;154.88;;;;;;;17.12;37.10;93445.50;5002830;28;20041;-66
2022/01/03 17:49:49;;;;;;;169.68;151.43;;;;;;;17.14;37.03;93434.97;5002746;28;20459;-66
2022/01/03 17:52:14;;;;;;;168.52;150.38;;;;;;;17.15;37.07;93447.28;5002803;28;20049;-67
2022/01/03 17:54:40;;;;;;;167.25;149.65;;;;;;;17.14;37.09;93448.47;5001159;28;20141;-64
2022/01/03 17:57:06;;;;;;;168.05;149.95;;;;;;;17.14;37.17;93440.38;5001398;28;20461;-64
2022/01/03 17:59:33;;;;;;;174.98;156.35;;;;;;;17.14;37.23;93440.38;5000041;28;20050;-65
2022/01/03 18:01:58;;;;;;;172.75;154.13;;;;;;;17.14;37.09;93437.66;5002530;28;20049;-65
2022/01/03 18:04:25;;;;;;;173.00;154.35;;;;;;;17.13;36.97;93426.13;5002015;28;20077;-65
2022/01/03 18:06:50;;;;;;;180.77;161.15;;;;;;;17.15;37.10;93419.50;5001821;28;20045;-65
2022/01/03 18:09:17;;;;;;;184.60;164.68;;;;;;;17.13;37.10;93420.72;5002107;28;20080;-65
2022/01/03 18:11:43;;;;;;;165.60;147.85;;;;;;;17.13;37.08;93418.00;5013068;28;21454;-66
2022/01/03 18:14:08;;;;;;;162.38;144.77;;;;;;;17.13;37.11;93403.75;5020395;28;20041;-65
2022/01/03 18:16:34;;;;;;;164.38;146.65;;;;;;;17.13;37.11;93401.06;5016892;28;20659;-65
2022/01/03 18:19:00;;;;;;;166.05;148.15;;;;;;;17.13;37.48;93401.06;5015488;28;20061;-65
2022/01/03 18:21:26;;;;;;;159.48;142.48;;;;;;;17.13;37.29;93395.66;5019522;28;20046;-65
2022/01/03 18:23:52;;;;;;;156.75;140.15;;;;;;;17.13;37.20;93399.09;5028804;28;20045;-65
2022/01/03 18:26:21;;;;;;;164.23;146.50;;;;;;;17.13;37.09;93398.34;5029094;28;20133;-66
2022/01/03 18:28:47;;;;;;;165.32;147.82;;;;;;;17.12;37.29;93397.59;5024122;28;20072;-68
2022/01/03 18:31:13;;;;;;;161.57;144.25;;;;;;;17.13;37.30;93406.47;5019725;28;20557;-67
2022/01/03 18:33:40;;;;;;;161.77;144.38;;;;;;;17.13;37.45;93395.66;5018968;28;20059;-65
2022/01/03 18:36:06;;;;;;;161.68;144.27;;;;;;;17.12;37.21;93397.59;5024903;28;20432;-65
2022/01/03 18:38:33;;;;;;;158.00;141.18;;;;;;;17.12;37.35;93402.25;5026883;28;20132;-66
2022/01/03 18:40:59;;;;;;;154.98;138.52;;;;;;;17.12;37.34;93403.00;5025972;28;20060;-67
2022/01/03 18:43:26;;;;;;;157.35;140.63;;;;;;;17.12;37.23;93388.75;5029119;28;20561;-66
2022/01/03 18:45:52;;;;;;;157.32;140.75;;;;;;;17.13;37.21;93387.53;5018142;28;20046;-67
2022/01/03 18:48:20;;;;;;;160.32;143.32;;;;;;;17.12;37.20;93377.94;5029768;28;20046;-66
2022/01/03 18:50:45;;;;;;;154.90;138.40;;;;;;;17.12;37.24;93369.84;5031019;28;20111;-67
2022/01/03 18:53:12;;;;;;;155.63;139.23;;;;;;;17.12;37.04;93367.88;5019732;28;20477;-66
2022/01/03 18:55:39;;;;;;;157.32;140.80;;;;;;;17.11;37.22;93362.94;5030269;28;20042;-67
2022/01/03 18:58:04;;;;;;;154.45;138.05;;;;;;;17.10;37.17;93364.91;5029447;28;20045;-66
2022/01/03 19:00:31;;;;;;;153.95;137.75;;;;;;;17.13;37.19;93371.34;5021428;28;20136;-66
2022/01/03 19:02:57;;;;;;;155.07;138.80;;;;;;;17.12;37.34;93370.59;5024070;28;20073;-67
2022/01/03 19:05:23;;;;;;;156.18;139.77;;;;;;;17.13;37.10;93365.94;5024258;28;20378;-66
2022/01/03 19:07:49;;;;;;;156.48;139.88;;;;;;;17.12;37.14;93357.06;5026702;28;20060;-66
2022/01/03 19:10:15;;;;;;;156.13;139.63;;;;;;;17.12;37.23;93357.06;5030110;28;20059;-66
2022/01/03 19:12:41;;;;;;;155.05;138.73;;;;;;;17.13;37.15;93355.13;5027633;28;20125;-67
2022/01/03 19:15:07;;;;;;;155.23;138.88;;;;;;;17.12;37.24;93353.63;5027881;28;20120;-66
2022/01/03 19:17:34;;;;;;;155.57;139.30;;;;;;;17.11;37.17;93344.03;5019324;28;20107;-66
2022/01/03 19:20:05;;;;;;;155.30;138.93;;;;;;;17.12;37.23;93359.78;5026246;28;20156;-65
2022/01/03 19:22:32;;;;;;;152.05;136.00;;;;;;;17.12;37.17;93351.66;5026223;28;20076;-66
2022/01/03 19:24:58;;;;;;;153.93;137.68;;;;;;;17.10;37.12;93346.00;5024326;28;20072;-66
2022/01/03 19:27:24;;;;;;;154.73;138.43;;;;;;;17.11;37.13;93349.44;5027235;28;20081;-66
2022/01/03 19:29:51;;;;;;;155.20;138.90;;;;;;;17.10;37.07;93347.94;5027492;28;20549;-67
2022/01/03 19:32:25;;;;;;;154.20;137.88;;;;;;;17.10;37.17;93343.28;5023818;28;20045;-67
2022/01/03 19:37:56;;;;;;;155.65;139.40;;;;;;;17.10;37.01;93337.13;5029862;28;20040;-67
2022/01/03 19:40:33;;;;;;;154.70;138.20;;;;;;;17.12;37.04;93337.41;5025720;28;20741;-67
2022/01/03 19:43:04;;;;;;;153.55;137.27;;;;;;;17.12;36.93;93346.28;5020120;28;20060;-67
2022/01/03 19:45:31;;;;;;;154.35;137.98;;;;;;;17.12;37.23;93340.13;5025151;28;20425;-66
2022/01/03 19:47:59;;;;;;;154.93;138.63;;;;;;;17.10;37.28;93346.00;5021574;28;20119;-67
2022/01/03 19:50:25;;;;;;;154.63;138.07;;;;;;;17.12;37.09;93342.81;5028807;28;20046;-67
2022/01/03 19:52:51;;;;;;;153.32;137.00;;;;;;;17.12;36.95;93348.22;5029355;28;20066;-66
2022/01/03 19:55:17;;;;;;;153.43;137.15;;;;;;;17.09;37.08;93338.34;5028724;28;20076;-67
2022/01/03 19:57:43;;;;;;;155.10;138.68;;;;;;;17.12;37.03;93340.13;5029513;28;20119;-67
2022/01/03 20:00:14;;;;;;;156.18;139.60;;;;;;;17.11;37.00;93335.94;5027587;28;20069;-67
2022/01/03 20:02:41;;;;;;;157.75;140.95;;;;;;;17.10;37.03;93326.31;5026874;28;20111;-67
2022/01/03 20:05:08;;;;;;;158.55;141.73;;;;;;;17.11;37.00;93322.41;5021606;28;20061;-66
2022/01/03 20:07:34;;;;;;;160.23;142.98;;;;;;;17.10;37.10;93321.66;5023151;28;20061;-68
2022/01/03 20:10:02;;;;;;;159.95;142.70;;;;;;;17.12;37.08;93319.25;5022339;28;20486;-66
2022/01/03 20:12:30;;;;;;;160.13;142.93;;;;;;;17.11;37.10;93311.63;5042765;28;20049;-66
2022/01/03 20:14:57;;;;;;;;;;;;;;;17.12;37.15;93313.09;5029362;28;20136;-66
2022/01/03 20:17:23;;;;;;;156.30;139.10;;;;;;;17.13;37.10;93317.28;5026669;28;20014;-66
2022/01/03 20:19:49;;;;;;;161.35;143.95;;;;;;;17.12;37.15;93316.56;4998798;28;20064;-67
2022/01/03 20:22:14;;;;;;;159.43;142.18;;;;;;;17.12;36.98;93297.63;5027191;28;20050;-67
2022/01/03 20:24:41;;;;;;;159.85;142.55;;;;;;;17.11;37.13;93287.28;5019655;28;20060;-67
2022/01/03 20:27:10;;;;;;;162.30;144.82;;;;;;;17.12;37.21;93286.09;5021769;28;20398;-67
2022/01/03 20:29:37;;;;;;;159.15;141.98;;;;;;;17.12;37.16;93277.97;5023529;28;20053;-67
2022/01/03 20:32:10;;;;;;;159.90;142.77;;;;;;;17.12;37.30;93275.28;5028390;28;20065;-66
2022/01/03 20:34:42;;;;;;;160.75;143.35;;;;;;;17.12;37.36;93264.47;5028173;28;20125;-66
2022/01/03 20:37:13;;;;;;;160.70;143.45;;;;;;;17.12;37.24;93262.53;5028740;28;20045;-67
2022/01/03 20:39:39;;;;;;;158.48;141.43;;;;;;;17.13;37.27;93260.56;5017992;28;20494;-67
2022/01/03 20:42:05;;;;;;;158.88;141.75;;;;;;;17.13;37.37;93255.16;5026305;28;20056;-67
2022/01/03 20:44:32;;;;;;;161.98;144.52;;;;;;;17.14;37.34;93253.94;5021868;28;20037;-67
2022/01/03 20:46:58;;;;;;;163.63;146.15;;;;;;;17.14;37.42;93253.94;5028197;28;20124;-67
2022/01/03 20:49:26;;;;;;;163.70;146.15;;;;;;;17.13;37.27;93253.19;5021788;28;20121;-67
2022/01/03 20:51:54;;;;;;;163.55;146.07;;;;;;;17.13;37.35;93247.78;5024256;28;20541;-68
2022/01/03 20:54:21;;;;;;;160.65;143.38;;;;;;;17.14;37.33;93251.25;5022920;28;20050;-67
2022/01/03 20:56:51;;;;;;;159.60;142.45;;;;;;;17.12;37.40;93248.25;5020732;28;20063;-67
2022/01/03 20:59:18;;;;;;;161.90;144.55;;;;;;;17.13;37.41;93252.47;5022813;28;20470;-67
2022/01/03 21:01:44;;;;;;;159.55;142.52;;;;;;;17.15;37.32;93252.00;5021026;28;20068;-67
2022/01/03 21:04:09;;;;;;;159.77;142.73;;;;;;;17.13;37.32;93249.75;5023220;28;20046;-67
2022/01/03 21:06:35;;;;;;;169.02;150.95;;;;;;;17.14;36.97;93240.44;5016530;28;20045;-66
2022/01/03 21:09:01;;;;;;;163.93;146.60;;;;;;;17.13;37.35;93241.66;5021898;28;20053;-66
2022/01/03 21:11:26;;;;;;;170.50;152.10;;;;;;;17.15;37.21;93243.88;5019497;28;21535;-66
2022/01/03 21:13:52;;;;;;;167.73;149.77;;;;;;;17.13;37.16;93239.69;5015350;28;20052;-66
2022/01/03 21:16:18;;;;;;;160.90;143.77;;;;;;;17.12;37.21;93232.06;5017837;28;20053;-67
2022/01/03 21:18:45;;;;;;;157.77;140.93;;;;;;;17.13;37.25;93237.00;5024219;28;20065;-66
2022/01/03 21:21:12;;;;;;;160.35;143.07;;;;;;;17.14;37.22;93232.34;5016577;28;20133;-67
2022/01/03 21:23:38;;;;;;;157.05;140.10;;;;;;;17.12;37.33;93224.69;5020544;28;20844;-66
2022/01/03 21:26:04;;;;;;;160.55;143.25;;;;;;;17.13;37.32;93223.47;5024551;28;20049;-66
2022/01/03 21:28:32;;;;;;;166.95;148.80;;;;;;;17.15;37.47;93211.47;5019147;28;20502;-67